The Eastern Iowa Airport Cedar Rapids US
ICAO: KCID
IATA: CID
Category: Large
Scheduled Services: Yes

Elevation: 869 ft
TransAlt. 18000 ft.

Airport Communications:
APP/DEP:119.05
ATIS:124.15
CLNC DEL:125.45
CTAF:118.7
GND:121.6
FORT DODGE RDO:122.55
TWR:118.7
UNICOM:122.95

KCID Zoom In..

If Map Doesn't Load, Click Here

Runways:

(A) RW 09 length 8600 ft width 150 ft
ILS 109.30 / hdg 89

(B) RW 13 length 6200 ft width 150 ft
---- / hdg 134

(C) RW 27 length 8600 ft width 150 ft
ILS 111.30 / hdg 269

(D) RW 31 length 6200 ft width 150 ft
---- / hdg 314

Location; KCID
Day. 23 / Time. 07.52 Zulu
* Altimeter: 30.12
* Temperature: 10° c. 50°f.
* Wind from: 140° Speed 03 kn.
Dewpoint: 09° c.
Visibility: 10 Statute Miles.
Clouds: Clear (automated report).

KCID 230752Z AUTO 14003KT 10SM CLR 10/09 A3012 RMK AO2 SLP200 T01000089


Wind From 140°
Speed 03 kn.

 
 
jpsmedia.com for Web Design worldairports.se 2018   terms of use